Time;durP1;ratioP1;P1;durP2;ratioP2;P2;SDS_P1;SDS_P2;PMS_P1;PMS_P2;Temp;Humidity;BMP_temperature;BMP_pressure;BME280_temperature;BME280_humidity;BME280_pressure;Samples;Min_cycle;Max_cycle;Signal;HPM_P1;HPM_P2
2021/06/06 00:00:29;;;;;;;2.85;2.17;;;21.30;57.00;;;;;;6177203;28;20038;-75
2021/06/06 00:03:37;;;;;;;2.88;1.95;;;21.30;57.00;;;;;;6164227;28;20375;-76
2021/06/06 00:06:39;;;;;;;2.67;2.15;;;21.30;57.00;;;;;;6161872;28;20039;-76
2021/06/06 00:09:40;;;;;;;4.90;2.33;;;21.30;57.00;;;;;;6178197;28;20050;-76
2021/06/06 00:12:41;;;;;;;2.38;2.17;;;21.30;57.00;;;;;;6193515;28;20058;-77
2021/06/06 00:15:43;;;;;;;2.78;2.58;;;21.30;56.90;;;;;;6177441;28;20117;-77
2021/06/06 00:18:46;;;;;;;2.50;2.30;;;21.30;56.90;;;;;;6161666;28;20051;-77
2021/06/06 00:21:47;;;;;;;3.45;2.63;;;21.30;56.90;;;;;;6182448;28;20050;-77
2021/06/06 00:24:48;;;;;;;3.83;2.70;;;21.30;56.90;;;;;;6185773;28;20039;-76
2021/06/06 00:27:49;;;;;;;4.05;2.67;;;21.30;56.90;;;;;;6168612;28;20494;-77
2021/06/06 00:30:51;;;;;;;3.58;3.05;;;21.30;57.00;;;;;;6177206;28;20125;-76
2021/06/06 00:33:52;;;;;;;5.20;3.42;;;21.40;57.70;;;;;;6161177;28;20043;-76
2021/06/06 00:36:55;;;;;;;3.50;2.95;;;21.30;57.00;;;;;;6161054;28;20130;-76
2021/06/06 00:39:58;;;;;;;3.22;2.80;;;21.40;56.90;;;;;;6161059;28;20118;-75
2021/06/06 00:43:00;;;;;;;7.90;2.60;;;21.40;56.80;;;;;;6158499;28;20109;-77
2021/06/06 00:46:05;;;;;;;4.95;3.20;;;21.40;56.80;;;;;;6160676;28;20062;-75
2021/06/06 00:49:08;;;;;;;5.25;3.80;;;21.40;56.70;;;;;;6160493;28;20375;-75
2021/06/06 00:52:13;;;;;;;4.75;3.47;;;21.40;56.70;;;;;;6183919;28;20046;-74
2021/06/06 00:55:15;;;;;;;6.05;3.25;;;21.40;56.60;;;;;;6159081;28;20031;-75
2021/06/06 00:58:18;;;;;;;4.22;3.20;;;21.40;56.70;;;;;;6184849;28;20030;-74
2021/06/06 01:01:21;;;;;;;3.58;3.05;;;21.40;56.70;;;;;;6200743;28;20034;-75
2021/06/06 01:04:25;;;;;;;4.10;3.53;;;21.40;56.70;;;;;;6184826;28;20074;-75
2021/06/06 01:07:26;;;;;;;3.58;3.13;;;21.40;56.70;;;;;;6167707;28;20046;-75
2021/06/06 01:10:27;;;;;;;5.22;3.35;;;21.40;56.60;;;;;;6184500;28;20034;-74
2021/06/06 01:13:39;;;;;;;4.10;3.50;;;21.40;56.60;;;;;;6168722;28;20104;-75
2021/06/06 01:16:57;;;;;;;4.20;3.58;;;21.40;56.50;;;;;;6178994;28;20043;-76
2021/06/06 01:20:17;;;;;;;3.65;3.13;;;21.40;56.60;;;;;;6166917;28;20078;-75
2021/06/06 01:23:33;;;;;;;6.63;3.63;;;21.40;56.60;;;;;;6181005;28;20038;-75
2021/06/06 01:26:42;;;;;;;4.13;3.28;;;21.40;56.60;;;;;;6182637;28;20041;-75
2021/06/06 01:29:57;;;;;;;;;;;21.40;56.60;;;;;;6198897;28;20050;-74
2021/06/06 01:33:06;;;;;;;5.05;3.20;;;21.40;56.60;;;;;;6198889;28;19921;-75
2021/06/06 01:36:15;;;;;;;3.80;3.40;;;21.40;56.60;;;;;;6171456;28;20059;-75
2021/06/06 01:39:24;;;;;;;3.55;3.03;;;21.30;56.70;;;;;;6165615;28;20031;-75
2021/06/06 01:42:29;;;;;;;3.70;3.25;;;21.30;56.70;;;;;;6159791;28;20049;-74
2021/06/06 01:45:36;;;;;;;4.20;3.30;;;21.30;56.70;;;;;;6153994;28;20197;-75
2021/06/06 01:53:05;;;;;;;5.03;3.25;;;21.30;57.00;;;;;;6183729;28;20046;-74
2021/06/06 01:56:08;;;;;;;6.38;2.92;;;21.30;56.90;;;;;;6183167;28;20042;-74
2021/06/06 01:59:27;;;;;;;3.33;2.63;;;21.30;56.90;;;;;;6162343;28;20046;-74
2021/06/06 02:02:32;;;;;;;6.80;2.80;;;21.30;56.90;;;;;;6160098;28;20038;-74
2021/06/06 02:05:34;;;;;;;2.78;2.50;;;21.30;56.80;;;;;;6158314;28;20034;-74
2021/06/06 02:08:37;;;;;;;3.35;2.17;;;21.30;56.80;;;;;;6173486;28;20038;-74
2021/06/06 02:11:59;;;;;;;2.72;2.15;;;21.30;56.80;;;;;;6157522;28;20043;-75
2021/06/06 02:15:10;;;;;;;3.28;2.42;;;21.30;56.70;;;;;;6194377;28;20073;-74
2021/06/06 02:18:19;;;;;;;10.93;2.45;;;21.30;56.70;;;;;;6180824;28;20027;-74
2021/06/06 02:21:21;;;;;;;2.72;2.47;;;21.30;56.70;;;;;;6198413;28;20348;-74
2021/06/06 02:24:23;;;;;;;3.05;2.30;;;21.30;56.60;;;;;;6181606;28;20042;-74
2021/06/06 02:27:46;;;;;;;2.92;2.30;;;21.40;56.60;;;;;;6181516;28;20133;-74
2021/06/06 02:31:29;;;;;;;3.53;2.25;;;21.30;56.60;;;;;;6181128;28;20041;-74
2021/06/06 02:34:54;;;;;;;3.22;2.40;;;21.20;56.70;;;;;;6192944;28;20042;-74
2021/06/06 02:38:20;;;;;;;2.80;2.42;;;21.20;56.70;;;;;;6179244;28;20070;-75
2021/06/06 02:41:42;;;;;;;3.35;2.78;;;21.20;56.80;;;;;;6196755;28;20038;-75
2021/06/06 02:44:51;;;;;;;2.90;2.60;;;21.20;56.80;;;;;;6180943;28;20038;-74
2021/06/06 02:48:14;;;;;;;4.35;2.78;;;21.20;56.80;;;;;;6197040;28;20050;-74
2021/06/06 02:51:21;;;;;;;4.80;3.38;;;21.20;56.90;;;;;;6180610;28;20030;-75
2021/06/06 02:54:29;;;;;;;3.92;3.33;;;21.20;56.90;;;;;;6178632;28;20050;-75
2021/06/06 02:57:33;;;;;;;4.72;3.15;;;21.20;56.90;;;;;;6163803;28;20364;-75
2021/06/06 03:00:44;;;;;;;4.18;3.75;;;21.20;56.80;;;;;;6197200;28;20034;-76
2021/06/06 03:03:48;;;;;;;4.15;3.47;;;21.20;56.90;;;;;;6179835;28;20042;-74
2021/06/06 03:07:06;;;;;;;3.95;3.45;;;21.20;56.90;;;;;;6181745;28;20101;-75
2021/06/06 03:10:10;;;;;;;4.63;3.80;;;21.20;56.80;;;;;;6196588;28;20360;-74
2021/06/06 03:13:26;;;;;;;4.80;3.75;;;21.20;56.80;;;;;;6180213;28;20034;-74
2021/06/06 03:16:30;;;;;;;4.20;3.78;;;21.20;56.80;;;;;;6197432;28;20109;-75
2021/06/06 03:19:42;;;;;;;5.90;4.15;;;21.20;56.80;;;;;;6181981;28;20128;-75
2021/06/06 03:22:46;;;;;;;8.25;3.97;;;21.30;56.70;;;;;;6170472;28;20053;-75
2021/06/06 03:26:20;;;;;;;5.15;3.97;;;21.30;56.60;;;;;;6180409;28;20045;-75
2021/06/06 03:29:32;;;;;;;4.45;4.00;;;21.30;56.70;;;;;;6102814;29;20040;-75
2021/06/06 03:32:37;;;;;;;3.83;3.45;;;21.30;56.50;;;;;;6090860;29;20032;-75
2021/06/06 03:35:40;;;;;;;5.10;3.55;;;21.30;56.40;;;;;;6087728;29;20330;-75
2021/06/06 03:38:42;;;;;;;7.22;4.25;;;21.30;56.40;;;;;;6122104;29;20052;-75
2021/06/06 03:41:45;;;;;;;5.80;3.42;;;21.30;56.30;;;;;;6122614;29;20051;-75
2021/06/06 03:44:46;;;;;;;4.18;3.67;;;21.30;56.40;;;;;;6106492;29;20032;-75
2021/06/06 03:47:51;;;;;;;4.40;3.53;;;21.40;56.40;;;;;;6122562;29;20067;-75
2021/06/06 03:50:53;;;;;;;3.53;3.20;;;21.40;56.50;;;;;;6093655;29;20036;-75
2021/06/06 03:54:00;;;;;;;6.00;3.85;;;21.30;56.40;;;;;;6068104;29;20418;-75
2021/06/06 03:57:14;;;;;;;4.10;3.42;;;21.30;56.50;;;;;;6079686;29;20033;-75
2021/06/06 04:00:43;;;;;;;3.83;3.40;;;21.30;56.70;;;;;;6098837;29;20037;-75
2021/06/06 04:03:46;;;;;;;5.45;3.95;;;21.20;56.60;;;;;;6083467;29;20040;-74
2021/06/06 04:06:47;;;;;;;7.28;3.55;;;21.20;56.70;;;;;;6172149;28;20035;-74
2021/06/06 04:09:49;;;;;;;6.45;4.13;;;21.20;56.80;;;;;;6183868;28;20468;-75
2021/06/06 04:12:51;;;;;;;5.82;3.40;;;21.20;56.80;;;;;;6163724;28;20092;-75
2021/06/06 04:15:57;;;;;;;5.97;3.45;;;21.20;56.80;;;;;;6179662;28;20053;-75
2021/06/06 04:18:59;;;;;;;4.28;3.20;;;21.20;56.70;;;;;;6194683;28;20030;-75
2021/06/06 04:22:01;;;;;;;6.07;3.17;;;21.20;56.70;;;;;;6198616;28;20058;-74
2021/06/06 04:25:04;;;;;;;4.47;3.63;;;21.20;56.70;;;;;;6195921;28;20403;-75
2021/06/06 04:28:08;;;;;;;5.18;3.40;;;21.30;56.60;;;;;;6195660;28;20035;-74
2021/06/06 04:31:10;;;;;;;5.60;3.60;;;21.30;56.60;;;;;;6180019;28;20034;-74
2021/06/06 04:34:12;;;;;;;6.63;3.30;;;21.30;56.70;;;;;;6179931;28;20050;-74
2021/06/06 04:37:15;;;;;;;7.10;3.67;;;21.40;56.70;;;;;;6199299;28;20042;-75
2021/06/06 04:40:17;;;;;;;4.28;3.28;;;21.30;56.70;;;;;;6199675;28;20105;-75
2021/06/06 04:43:19;;;;;;;4.38;3.47;;;21.30;56.60;;;;;;6183789;28;20038;-75
2021/06/06 04:46:21;;;;;;;3.65;3.15;;;21.40;56.60;;;;;;6183600;28;20452;-75
2021/06/06 04:49:23;;;;;;;4.40;3.60;;;21.30;56.60;;;;;;6201788;28;20049;-75
2021/06/06 04:52:25;;;;;;;4.38;2.80;;;21.40;56.60;;;;;;6183616;28;20030;-75
2021/06/06 04:55:28;;;;;;;5.82;3.08;;;21.40;56.50;;;;;;6182376;28;20038;-75
2021/06/06 04:58:32;;;;;;;3.92;2.72;;;21.40;56.50;;;;;;6185340;28;20034;-76
2021/06/06 05:01:38;;;;;;;3.33;3.00;;;21.40;56.40;;;;;;6184961;28;20053;-75
2021/06/06 05:04:43;;;;;;;3.40;3.10;;;21.40;56.40;;;;;;6184784;28;20456;-75
2021/06/06 05:07:54;;;;;;;5.25;2.92;;;21.40;56.40;;;;;;6184236;28;20377;-75
2021/06/06 05:10:56;;;;;;;7.90;3.20;;;21.40;56.40;;;;;;6183812;28;20106;-75
2021/06/06 05:13:58;;;;;;;4.22;3.08;;;21.50;56.30;;;;;;6167877;28;20038;-75
2021/06/06 05:16:59;;;;;;;4.35;3.08;;;21.50;56.20;;;;;;6174774;28;20074;-75
2021/06/06 05:20:07;;;;;;;3.40;2.80;;;21.50;56.20;;;;;;6184390;28;20424;-75
2021/06/06 05:23:09;;;;;;;3.50;3.10;;;21.50;56.20;;;;;;6183960;28;20069;-75
2021/06/06 05:26:10;;;;;;;4.90;3.22;;;21.60;56.10;;;;;;6168075;28;20092;-75
2021/06/06 05:29:17;;;;;;;5.90;2.92;;;21.60;56.00;;;;;;6173775;28;20031;-75
2021/06/06 05:32:18;;;;;;;5.70;3.10;;;21.60;55.90;;;;;;6181197;28;20124;-75
2021/06/06 05:35:21;;;;;;;3.58;3.20;;;21.70;56.00;;;;;;6184299;28;20069;-75
2021/06/06 05:38:25;;;;;;;3.22;2.90;;;21.60;55.90;;;;;;6198441;28;20050;-74
2021/06/06 05:41:27;;;;;;;5.13;2.95;;;21.60;55.90;;;;;;6201081;28;20042;-74
2021/06/06 05:44:27;;;;;;;3.90;3.05;;;21.60;55.90;;;;;;6183904;28;20035;-75
2021/06/06 05:47:28;;;;;;;4.95;3.13;;;21.60;55.80;;;;;;6181585;28;20045;-75
2021/06/06 05:50:32;;;;;;;3.65;3.05;;;21.70;55.80;;;;;;6201412;28;20185;-75
2021/06/06 05:53:52;;;;;;;6.07;3.10;;;21.70;55.80;;;;;;6188390;28;20406;-74
2021/06/06 05:56:53;;;;;;;4.82;3.40;;;21.80;55.70;;;;;;6206758;28;20458;-74
2021/06/06 05:59:55;;;;;;;6.85;3.15;;;21.80;55.70;;;;;;6222835;28;20427;-74
2021/06/06 06:02:56;;;;;;;6.13;3.30;;;21.80;55.70;;;;;;6198644;28;20049;-74
2021/06/06 06:05:57;;;;;;;4.50;3.25;;;21.80;55.70;;;;;;6182079;28;20027;-75
2021/06/06 06:08:58;;;;;;;6.97;3.45;;;21.90;55.60;;;;;;6201961;28;20053;-75
2021/06/06 06:11:59;;;;;;;5.45;3.20;;;21.90;55.50;;;;;;6200710;28;20042;-74
2021/06/06 06:15:00;;;;;;;3.92;2.88;;;22.10;55.40;;;;;;6202849;28;20097;-75
2021/06/06 06:18:01;;;;;;;3.92;3.08;;;22.10;55.20;;;;;;6205646;28;20038;-75
2021/06/06 06:21:06;;;;;;;7.90;3.22;;;22.20;55.00;;;;;;6169807;28;20061;-75
2021/06/06 06:24:11;;;;;;;3.53;3.08;;;22.30;54.80;;;;;;6167215;28;20094;-76
2021/06/06 06:27:12;;;;;;;3.50;3.17;;;22.40;54.60;;;;;;6182678;28;20081;-76
2021/06/06 06:30:33;;;;;;;3.72;3.20;;;22.40;54.60;;;;;;6179950;28;20042;-77
2021/06/06 06:33:34;;;;;;;3.33;2.70;;;22.50;54.40;;;;;;6180273;28;20077;-76
2021/06/06 06:36:35;;;;;;;3.30;2.70;;;22.60;54.20;;;;;;6163582;28;20048;-76
2021/06/06 06:39:36;;;;;;;3.22;2.75;;;22.70;54.10;;;;;;6178925;28;20431;-76
2021/06/06 06:42:37;;;;;;;3.00;2.70;;;22.70;53.90;;;;;;6179986;28;20053;-75
2021/06/06 06:45:44;;;;;;;5.05;2.85;;;22.80;53.60;;;;;;6195086;28;20045;-76
2021/06/06 06:48:46;;;;;;;3.10;2.72;;;22.90;53.40;;;;;;6181523;28;20034;-74
2021/06/06 06:51:47;;;;;;;3.72;2.70;;;22.90;53.30;;;;;;6199626;28;20487;-74
2021/06/06 06:54:48;;;;;;;4.68;2.75;;;22.90;53.20;;;;;;6180798;28;20459;-76
2021/06/06 06:57:49;;;;;;;12.65;3.03;;;22.90;53.10;;;;;;6169919;28;20519;-75
2021/06/06 07:00:53;;;;;;;5.55;2.88;;;23.00;53.00;;;;;;6197603;28;20337;-75
2021/06/06 07:03:54;;;;;;;3.97;2.60;;;23.10;52.90;;;;;;6180153;28;20046;-75
2021/06/06 07:06:55;;;;;;;2.85;2.55;;;23.20;52.70;;;;;;6180229;28;20054;-77
2021/06/06 07:09:56;;;;;;;3.22;2.53;;;23.30;52.60;;;;;;6180476;28;20034;-75
2021/06/06 07:12:58;;;;;;;4.60;3.25;;;23.30;52.40;;;;;;6178912;28;20049;-75
2021/06/06 07:16:00;;;;;;;2.45;2.25;;;23.30;52.20;;;;;;6180043;28;20035;-76
2021/06/06 07:19:01;;;;;;;2.50;2.30;;;23.30;52.20;;;;;;6180333;28;20030;-75
2021/06/06 07:22:04;;;;;;;3.30;2.40;;;23.30;52.20;;;;;;6180200;28;20062;-75
2021/06/06 07:25:08;;;;;;;2.75;2.47;;;23.30;52.10;;;;;;6180918;28;20022;-75
2021/06/06 07:28:10;;;;;;;4.80;3.10;;;23.30;52.10;;;;;;6197281;28;20030;-74
2021/06/06 07:31:12;;;;;;;2.38;2.17;;;23.20;52.20;;;;;;6182003;28;20061;-75
2021/06/06 07:34:14;;;;;;;4.68;2.70;;;23.20;52.20;;;;;;6181968;28;20031;-75
2021/06/06 07:37:16;;;;;;;3.55;2.17;;;23.20;52.20;;;;;;6197870;28;20093;-75
2021/06/06 07:40:18;;;;;;;3.38;2.20;;;23.10;52.20;;;;;;6181492;28;20101;-75
2021/06/06 07:43:20;;;;;;;3.20;2.40;;;23.10;52.10;;;;;;6197708;28;20031;-76
2021/06/06 07:46:21;;;;;;;3.65;2.78;;;23.10;52.00;;;;;;6181682;28;20031;-76
2021/06/06 07:49:23;;;;;;;3.33;2.47;;;23.20;52.00;;;;;;6196922;28;20034;-76
2021/06/06 07:52:24;;;;;;;3.30;2.20;;;23.20;52.00;;;;;;6166194;28;20042;-75
2021/06/06 07:55:27;;;;;;;2.35;2.15;;;23.20;52.00;;;;;;6181735;28;20035;-75
2021/06/06 07:58:34;;;;;;;2.78;2.35;;;23.20;52.00;;;;;;6164554;28;20372;-76
2021/06/06 08:01:35;;;;;;;3.13;2.70;;;23.10;52.00;;;;;;6181890;28;20105;-75
2021/06/06 08:04:37;;;;;;;3.30;2.70;;;23.20;52.00;;;;;;6192835;28;20034;-75
2021/06/06 08:07:38;;;;;;;2.63;2.28;;;23.20;52.10;;;;;;6173201;28;20031;-75
2021/06/06 08:10:42;;;;;;;3.45;2.70;;;23.20;52.10;;;;;;6176525;28;20031;-74
2021/06/06 08:13:43;;;;;;;4.38;2.60;;;23.10;52.10;;;;;;6161525;28;20556;-74
2021/06/06 08:16:44;;;;;;;2.63;2.42;;;23.10;52.20;;;;;;6144433;28;20039;-75
2021/06/06 08:19:45;;;;;;;6.07;2.70;;;23.10;52.20;;;;;;6167348;28;20069;-74
2021/06/06 08:22:46;;;;;;;6.65;2.75;;;23.20;52.10;;;;;;6185181;28;20058;-76
2021/06/06 08:25:48;;;;;;;2.92;2.38;;;23.30;52.10;;;;;;6187524;28;20424;-76
2021/06/06 08:28:51;;;;;;;4.18;3.65;;;23.30;52.00;;;;;;6185556;28;20034;-75
2021/06/06 08:31:52;;;;;;;4.25;2.80;;;23.40;51.90;;;;;;6185574;28;20045;-76
2021/06/06 08:34:55;;;;;;;3.10;2.50;;;23.50;51.70;;;;;;6185512;28;20367;-76
2021/06/06 08:37:56;;;;;;;2.47;2.28;;;23.60;51.60;;;;;;6187880;28;20030;-76
2021/06/06 08:41:12;;;;;;;3.20;2.67;;;23.80;51.30;;;;;;6199842;28;20518;-76
2021/06/06 08:44:45;;;;;;;3.75;2.40;;;23.90;51.00;;;;;;6191506;28;20049;-75
2021/06/06 08:47:46;;;;;;;2.90;2.60;;;24.00;50.80;;;;;;6123186;28;20039;-75
2021/06/06 08:50:55;;;;;;;6.65;2.30;;;24.10;50.40;;;;;;6101817;29;20164;-75
2021/06/06 08:54:33;;;;;;;4.07;2.40;;;24.10;50.40;;;;;;6109331;29;20118;-75
2021/06/06 08:57:59;;;;;;;2.63;2.42;;;24.20;50.20;;;;;;6124949;28;20069;-75
2021/06/06 09:01:10;;;;;;;2.40;2.20;;;24.20;49.90;;;;;;6146187;28;20035;-76
2021/06/06 09:04:15;;;;;;;3.80;2.60;;;24.20;49.70;;;;;;6147237;28;20035;-76
2021/06/06 09:07:34;;;;;;;2.90;2.25;;;24.30;49.70;;;;;;6146214;28;20409;-76
2021/06/06 09:10:40;;;;;;;5.25;2.30;;;24.30;49.70;;;;;;6137334;28;20035;-75
2021/06/06 09:13:41;;;;;;;5.05;2.67;;;24.30;49.60;;;;;;6129446;29;20043;-76
2021/06/06 09:17:01;;;;;;;3.45;2.60;;;24.40;49.40;;;;;;6147341;28;20134;-76
2021/06/06 09:20:06;;;;;;;2.58;2.38;;;24.30;49.30;;;;;;6144391;28;20173;-76
2021/06/06 09:23:27;;;;;;;2.55;2.13;;;24.40;49.30;;;;;;6131716;28;20039;-76
2021/06/06 09:26:28;;;;;;;3.20;2.58;;;24.30;49.30;;;;;;6136806;28;20047;-76
2021/06/06 09:29:30;;;;;;;2.42;2.22;;;24.30;49.30;;;;;;6146652;28;20039;-76
2021/06/06 09:32:32;;;;;;;2.55;2.35;;;24.30;49.30;;;;;;6130549;28;20051;-75
2021/06/06 09:35:56;;;;;;;2.75;2.42;;;24.30;49.20;;;;;;6122137;28;20039;-76
2021/06/06 09:39:03;;;;;;;2.78;2.50;;;24.30;49.10;;;;;;6159350;28;20387;-76
2021/06/06 09:42:21;;;;;;;3.20;2.90;;;24.30;49.10;;;;;;6196628;28;20038;-76
2021/06/06 09:45:29;;;;;;;3.13;2.45;;;24.20;49.40;;;;;;6139160;28;20069;-76
2021/06/06 09:48:33;;;;;;;;;;;24.20;49.70;;;;;;6197771;28;20137;-77
2021/06/06 09:51:35;;;;;;;4.05;2.60;;;24.30;49.80;;;;;;6180838;28;19925;-77
2021/06/06 09:54:37;;;;;;;4.82;2.20;;;24.30;49.60;;;;;;6200371;28;20050;-75
2021/06/06 09:57:42;;;;;;;4.72;2.65;;;24.30;49.80;;;;;;6164620;28;20109;-76
2021/06/06 10:00:50;;;;;;;2.85;2.50;;;24.30;49.70;;;;;;6171040;28;20034;-76
2021/06/06 10:03:56;;;;;;;2.90;2.40;;;24.40;49.40;;;;;;6198768;28;20053;-76
2021/06/06 10:07:27;;;;;;;4.60;2.72;;;24.50;49.20;;;;;;6197181;28;20034;-76
2021/06/06 10:10:42;;;;;;;7.63;2.50;;;24.60;49.10;;;;;;6134032;28;20042;-77
2021/06/06 10:13:51;;;;;;;3.10;2.70;;;24.70;48.80;;;;;;6131630;28;20054;-76
2021/06/06 10:16:55;;;;;;;3.60;2.40;;;24.90;48.60;;;;;;6137978;28;20048;-76
2021/06/06 10:20:12;;;;;;;4.07;1.90;;;25.00;48.30;;;;;;6096717;28;20121;-76
2021/06/06 10:23:30;;;;;;;2.85;2.00;;;25.20;47.90;;;;;;6125822;28;20042;-76
2021/06/06 10:26:54;;;;;;;5.07;1.83;;;25.30;47.70;;;;;;6117968;28;20111;-76
2021/06/06 10:30:04;;;;;;;1.67;1.58;;;25.30;47.50;;;;;;6128832;28;20050;-76
2021/06/06 10:33:47;;;;;;;2.85;1.92;;;25.30;47.40;;;;;;6128561;28;20397;-77
2021/06/06 10:36:48;;;;;;;4.40;1.63;;;25.30;47.40;;;;;;6023735;29;20036;-76
2021/06/06 10:39:58;;;;;;;4.15;1.67;;;25.10;47.40;;;;;;6047036;29;20037;-76
2021/06/06 10:43:13;;;;;;;1.38;1.27;;;25.10;47.50;;;;;;6054097;29;20037;-77
2021/06/06 10:46:34;;;;;;;2.40;1.40;;;25.00;47.50;;;;;;6036768;29;20045;-76
2021/06/06 10:49:37;;;;;;;1.58;1.48;;;25.00;47.50;;;;;;6064956;29;20592;-76
2021/06/06 10:52:40;;;;;;;3.30;1.67;;;25.10;47.30;;;;;;6063226;29;20047;-75
2021/06/06 10:56:14;;;;;;;1.48;1.33;;;25.20;47.30;;;;;;6059591;29;20463;-76
2021/06/06 11:03:35;;;;;;;2.20;1.80;;;25.10;47.40;;;;;;6045009;29;20041;-77
2021/06/06 11:06:37;;;;;;;1.73;1.50;;;26.00;46.20;;;;;;6011871;29;20118;-76
2021/06/06 11:09:40;;;;;;;4.30;1.77;;;27.40;44.00;;;;;;6043743;29;20053;-75
2021/06/06 11:12:42;;;;;;;5.20;1.60;;;28.30;42.20;;;;;;6049247;29;20086;-76
2021/06/06 11:16:09;;;;;;;2.53;1.70;;;29.00;40.60;;;;;;6090622;29;20044;-76
2021/06/06 11:19:18;;;;;;;2.22;1.35;;;29.80;39.50;;;;;;6081223;29;20037;-76
2021/06/06 11:22:32;;;;;;;2.28;1.50;;;30.40;37.70;;;;;;6081384;29;20106;-76
2021/06/06 11:25:40;;;;;;;1.85;1.50;;;30.00;37.60;;;;;;6085589;29;20036;-75
2021/06/06 11:28:41;;;;;;;2.38;1.70;;;29.30;38.50;;;;;;6096775;29;20566;-75
2021/06/06 11:32:10;;;;;;;5.65;1.80;;;29.00;39.10;;;;;;6082502;29;20043;-77
2021/06/06 11:35:27;;;;;;;2.20;1.38;;;28.50;39.50;;;;;;6147115;28;20027;-75
2021/06/06 11:38:28;;;;;;;2.75;1.20;;;28.00;40.30;;;;;;6164108;28;20043;-77
2021/06/06 11:41:32;;;;;;;7.50;1.40;;;27.50;41.10;;;;;;6171280;28;20045;-74
2021/06/06 11:45:00;;;;;;;1.35;1.10;;;27.20;41.90;;;;;;6171815;28;20126;-75
2021/06/06 11:48:09;;;;;;;6.47;1.30;;;26.90;42.60;;;;;;6166356;28;20031;-76
2021/06/06 11:51:23;;;;;;;1.50;1.33;;;27.00;42.60;;;;;;6176308;28;20026;-77
2021/06/06 11:54:32;;;;;;;1.60;1.50;;;27.10;42.60;;;;;;6158919;28;20070;-76
2021/06/06 11:57:38;;;;;;;5.82;1.30;;;27.70;41.70;;;;;;6158363;28;20035;-77
2021/06/06 12:04:40;;;;;;;3.17;1.17;;;29.00;38.90;;;;;;6215471;28;20042;-77
2021/06/06 12:07:44;;;;;;;1.30;1.20;;;29.30;38.50;;;;;;6183445;28;20368;-76
2021/06/06 12:10:55;;;;;;;2.80;1.33;;;29.00;38.40;;;;;;6176147;28;20039;-75
2021/06/06 12:14:12;;;;;;;1.27;1.15;;;28.70;38.80;;;;;;6168006;28;20108;-76
2021/06/06 12:17:24;;;;;;;2.13;1.25;;;28.90;38.70;;;;;;6182837;28;20431;-76
2021/06/06 12:20:25;;;;;;;1.27;1.17;;;28.80;38.80;;;;;;6203551;28;20120;-75
2021/06/06 12:23:32;;;;;;;4.47;1.15;;;28.40;39.30;;;;;;6183320;28;20046;-76
2021/06/06 12:27:15;;;;;;;1.35;1.20;;;28.00;40.00;;;;;;6199011;28;20113;-76
2021/06/06 12:30:16;;;;;;;1.42;1.20;;;27.50;41.50;;;;;;6182617;28;20031;-75
2021/06/06 12:33:40;;;;;;;1.27;1.10;;;27.10;42.20;;;;;;6184041;28;20045;-76
2021/06/06 12:36:42;;;;;;;1.23;1.13;;;26.60;42.50;;;;;;6166886;28;20030;-75
2021/06/06 12:39:44;;;;;;;1.23;1.13;;;26.30;43.10;;;;;;6183199;28;20108;-75
2021/06/06 12:42:46;;;;;;;2.40;1.30;;;26.00;43.70;;;;;;6183031;28;20069;-77
2021/06/06 12:45:48;;;;;;;2.88;1.27;;;25.70;44.90;;;;;;6166095;28;20035;-76
2021/06/06 12:49:27;;;;;;;5.40;1.50;;;25.50;44.80;;;;;;6200098;28;20030;-76
2021/06/06 12:52:32;;;;;;;4.15;1.30;;;25.40;45.20;;;;;;6152830;28;20135;-76
2021/06/06 12:55:37;;;;;;;3.40;1.48;;;25.30;45.40;;;;;;6154765;28;20035;-75
2021/06/06 12:58:39;;;;;;;1.30;1.20;;;25.20;45.80;;;;;;6147096;28;20038;-75
2021/06/06 13:01:40;;;;;;;1.70;1.10;;;25.10;46.10;;;;;;6175543;28;20116;-75
2021/06/06 13:04:42;;;;;;;1.48;1.38;;;25.10;46.30;;;;;;6195737;28;20125;-76
2021/06/06 13:07:54;;;;;;;6.15;2.20;;;25.10;46.30;;;;;;6179224;28;20034;-76
2021/06/06 13:10:58;;;;;;;1.20;1.10;;;25.10;46.40;;;;;;6179487;28;20035;-76
2021/06/06 13:14:06;;;;;;;1.15;1.05;;;25.10;46.20;;;;;;6169792;28;20042;-76
2021/06/06 13:17:22;;;;;;;1.45;1.35;;;25.10;46.30;;;;;;6180306;28;20045;-76
2021/06/06 13:20:34;;;;;;;0.90;0.90;;;25.10;46.40;;;;;;6198804;28;20046;-76
2021/06/06 13:23:41;;;;;;;1.52;1.10;;;25.20;46.50;;;;;;6179620;28;20077;-76
2021/06/06 13:26:45;;;;;;;6.18;1.27;;;25.30;46.50;;;;;;6181222;28;20085;-76
2021/06/06 13:29:49;;;;;;;1.52;1.40;;;25.50;46.30;;;;;;6181072;28;20035;-77
2021/06/06 13:33:01;;;;;;;2.67;1.40;;;25.60;46.10;;;;;;6179764;28;20496;-76
2021/06/06 13:36:04;;;;;;;3.17;1.15;;;25.60;45.90;;;;;;6195793;28;20049;-75
2021/06/06 13:39:26;;;;;;;1.10;0.93;;;25.70;45.80;;;;;;6180685;28;20117;-76
2021/06/06 13:42:27;;;;;;;1.02;0.98;;;25.60;45.80;;;;;;6179011;28;20430;-75
2021/06/06 13:45:30;;;;;;;1.40;1.13;;;25.60;45.80;;;;;;6163008;28;20081;-77
2021/06/06 13:48:31;;;;;;;1.90;1.30;;;25.60;45.80;;;;;;6180020;28;20482;-75
2021/06/06 13:51:33;;;;;;;1.00;0.90;;;25.60;45.80;;;;;;6181981;28;20072;-75
2021/06/06 13:54:35;;;;;;;1.20;1.10;;;25.60;45.80;;;;;;6179711;28;20426;-75
2021/06/06 13:57:37;;;;;;;1.45;1.15;;;25.50;45.90;;;;;;6180458;28;20464;-75
2021/06/06 14:00:40;;;;;;;2.97;1.00;;;25.40;45.90;;;;;;6163838;28;20050;-75
2021/06/06 14:03:42;;;;;;;1.27;1.17;;;25.30;46.20;;;;;;6199841;28;20103;-75
2021/06/06 14:06:45;;;;;;;1.27;1.17;;;25.20;46.40;;;;;;6179496;28;20086;-75
2021/06/06 14:09:46;;;;;;;1.30;1.00;;;25.20;46.50;;;;;;6170710;28;20039;-76
2021/06/06 14:12:49;;;;;;;2.58;1.40;;;25.10;46.60;;;;;;6179322;28;20148;-76
2021/06/06 14:15:50;;;;;;;1.63;1.20;;;25.10;46.70;;;;;;6163863;28;20111;-76
2021/06/06 14:18:53;;;;;;;2.85;1.35;;;25.10;47.40;;;;;;6195099;28;20046;-76
2021/06/06 14:21:54;;;;;;;3.92;1.17;;;25.10;46.80;;;;;;6182297;28;20093;-76
2021/06/06 14:24:55;;;;;;;1.23;1.13;;;25.10;47.00;;;;;;6180784;28;20038;-76
2021/06/06 14:27:57;;;;;;;1.20;1.10;;;25.10;47.20;;;;;;6198335;28;20096;-76
2021/06/06 14:31:15;;;;;;;1.40;1.00;;;25.00;47.20;;;;;;6181715;28;20061;-76
2021/06/06 14:34:18;;;;;;;1.90;1.35;;;25.00;47.30;;;;;;6194816;28;20037;-77
2021/06/06 14:37:19;;;;;;;1.38;0.90;;;25.00;47.30;;;;;;6161515;28;20096;-76
2021/06/06 14:40:24;;;;;;;1.50;1.40;;;24.90;47.40;;;;;;6179534;28;20034;-76
2021/06/06 14:43:25;;;;;;;1.27;1.13;;;24.90;47.40;;;;;;6179186;28;20324;-75
2021/06/06 14:46:27;;;;;;;0.95;0.95;;;24.90;47.40;;;;;;6195628;28;20053;-76
2021/06/06 14:49:28;;;;;;;1.15;1.05;;;24.90;47.40;;;;;;6196091;28;20474;-76
2021/06/06 14:52:29;;;;;;;1.30;1.00;;;24.80;47.50;;;;;;6164363;28;20066;-75
2021/06/06 14:55:31;;;;;;;1.95;1.30;;;24.80;47.50;;;;;;6179552;28;20066;-76
2021/06/06 14:58:34;;;;;;;2.78;1.23;;;24.70;47.50;;;;;;6194045;28;20049;-75
2021/06/06 15:01:36;;;;;;;1.35;1.10;;;24.70;47.50;;;;;;6191674;28;20034;-76
2021/06/06 15:04:37;;;;;;;1.10;1.00;;;24.70;47.50;;;;;;6199227;28;20062;-75
2021/06/06 15:07:38;;;;;;;1.77;1.35;;;24.70;47.60;;;;;;6199199;28;20348;-76
2021/06/06 15:10:42;;;;;;;1.98;1.08;;;24.70;47.70;;;;;;6205240;28;20054;-76
2021/06/06 15:13:46;;;;;;;1.35;1.17;;;24.70;47.80;;;;;;6181921;28;20118;-76
2021/06/06 15:16:47;;;;;;;1.20;1.10;;;24.70;47.90;;;;;;6197985;28;20440;-76
2021/06/06 15:19:48;;;;;;;1.38;1.15;;;24.80;47.80;;;;;;6165774;28;20443;-76
2021/06/06 15:22:50;;;;;;;1.35;0.90;;;24.90;47.60;;;;;;6187375;28;20114;-74
2021/06/06 15:25:51;;;;;;;1.35;1.20;;;25.00;47.40;;;;;;6180715;28;20054;-75
2021/06/06 15:28:53;;;;;;;2.08;0.85;;;25.00;47.40;;;;;;6197060;28;20398;-76
2021/06/06 15:31:54;;;;;;;1.67;1.27;;;25.00;47.50;;;;;;6180051;28;20045;-76
2021/06/06 15:34:55;;;;;;;1.38;1.27;;;25.00;47.50;;;;;;6182393;28;20126;-76
2021/06/06 15:37:58;;;;;;;2.72;1.15;;;25.00;47.50;;;;;;6164263;28;20113;-76
2021/06/06 15:41:02;;;;;;;1.38;1.13;;;25.10;48.10;;;;;;6196683;28;20030;-75
2021/06/06 15:44:04;;;;;;;5.43;1.60;;;25.10;47.50;;;;;;6163261;28;20414;-76
2021/06/06 15:47:04;;;;;;;1.35;1.10;;;25.10;47.40;;;;;;6180229;28;20073;-75
2021/06/06 15:50:07;;;;;;;2.67;1.20;;;25.10;47.50;;;;;;6181313;28;20355;-77
2021/06/06 15:53:13;;;;;;;3.58;1.38;;;25.10;47.70;;;;;;6195224;28;20054;-76
2021/06/06 15:56:15;;;;;;;3.60;1.40;;;25.00;47.80;;;;;;6196005;28;20467;-75
2021/06/06 15:59:16;;;;;;;1.27;1.02;;;25.10;47.90;;;;;;6162125;28;20034;-76
2021/06/06 16:02:21;;;;;;;1.20;1.10;;;25.00;47.90;;;;;;6193209;28;20038;-75
2021/06/06 16:05:22;;;;;;;2.35;1.30;;;25.10;47.90;;;;;;6178237;28;20054;-75
2021/06/06 16:08:23;;;;;;;1.30;1.20;;;25.10;47.80;;;;;;6177460;28;20054;-75
2021/06/06 16:11:26;;;;;;;3.67;1.30;;;25.10;47.80;;;;;;6177242;28;20038;-75
2021/06/06 16:14:27;;;;;;;1.40;1.02;;;25.10;47.80;;;;;;6176938;28;20145;-74
2021/06/06 16:17:28;;;;;;;2.30;1.30;;;25.10;47.70;;;;;;6179832;28;20468;-75
2021/06/06 16:20:29;;;;;;;4.22;1.35;;;25.00;47.70;;;;;;6173083;28;20054;-75
2021/06/06 16:23:30;;;;;;;2.00;1.30;;;24.90;47.90;;;;;;6191979;28;20463;-75